INDIA METEOROLOGICAL DEPARTMENT, R.M.C. NEW DELHI
Dated:31 - 10 - 2020
METARS OF ALTERNATE AIRPORTS
Delhi      
VIDP 310930Z 30009KT 3000 HZ NSC 30/10 Q1012 NOSIG =
Lucknow    
VILK 310930Z VRB02KT 4000 HZ FEW020 32/13 Q1011 NOSIG=
Jaipur     
VIJP 310930Z VRB02KT 2000 HZ NSC 30/01 Q1013 NOSIG=
Ahmedabad  
VAAH 310930Z 06007KT 6000 NSC 34/06 Q1010 NOSIG=
Udaipur    
VAUD 310930Z 05005KT 4000 HZ NSC 30/03 Q1014 NOSIG=
Mumbai     
VABB 310930Z 31010KT 5000 FU FEW020 34/15 Q1009 NOSIG=